2019-02-17 - 15:57:00

SR: 0641 - SS: 1646

RWY: 25


OBSERVATION: n/a

RVR Mean 1 min: (Runway Visual Range)
A: P2000 - B: P2000 - C: P2000
RVR Mean 10 min:
A: P2000 - B: P2000 - C: P2000
WARNING: n/a
W25: 060-170(100-02kt) 01kt-05kt
W07: 080-150(110-03kt) 02kt-04kt
OTHER: n/a

QFE: (tatsächlicher Luftdruck) 1013.5 hPa = 29.91 inHg
QNH:(Luftdruck auf Meereshöhe) 1019.3 hPa = 30.09 inHg
Temperatur: 15.0 °C
Dew point(Taupunkt): 3.3 °C

METAR:  00531 SADL31 EDDG 171550 METAR EDDG 171550Z 13003KT 070V170 CAVOK 15/04 Q1019 NOSIG= 
METAR (aus weather.noaa.gov):
2019/02/17 15:50 EDDG 171550Z 13003KT 070V170 CAVOK 15/04 Q1019 NOSIG 0

TAF (aus weather.noaa.gov):
2019/02/17 12:27 TAF EDDG 171100Z 1712/1812 16004KT CAVOK 0